sensor_id;sensor_type;location;lat;lon;timestamp;pressure;altitude;pressure_sealevel;temperature
35582;BMP180;21687;48.900;9.188;2023-09-19T00:01:43;98028.00;;;17.00
35582;BMP180;21687;48.900;9.188;2023-09-19T00:04:12;98029.00;;;16.90
35582;BMP180;21687;48.900;9.188;2023-09-19T00:06:39;98039.00;;;16.90
35582;BMP180;21687;48.900;9.188;2023-09-19T00:09:06;98037.00;;;16.80
35582;BMP180;21687;48.900;9.188;2023-09-19T00:11:37;98039.00;;;16.70
35582;BMP180;21687;48.900;9.188;2023-09-19T00:14:04;98050.00;;;16.60
35582;BMP180;21687;48.900;9.188;2023-09-19T00:16:34;98057.00;;;16.60
35582;BMP180;21687;48.900;9.188;2023-09-19T00:19:02;98052.00;;;16.50
35582;BMP180;21687;48.900;9.188;2023-09-19T00:21:31;98056.00;;;16.60
35582;BMP180;21687;48.900;9.188;2023-09-19T00:23:57;98061.00;;;16.60
35582;BMP180;21687;48.900;9.188;2023-09-19T00:26:23;98075.00;;;16.50
35582;BMP180;21687;48.900;9.188;2023-09-19T00:28:52;98071.00;;;16.50
35582;BMP180;21687;48.900;9.188;2023-09-19T00:31:19;98076.00;;;16.50
35582;BMP180;21687;48.900;9.188;2023-09-19T00:33:46;98079.00;;;16.50
35582;BMP180;21687;48.900;9.188;2023-09-19T00:36:12;98080.00;;;16.40
35582;BMP180;21687;48.900;9.188;2023-09-19T00:38:38;98082.00;;;16.40
35582;BMP180;21687;48.900;9.188;2023-09-19T00:41:05;98085.00;;;16.40
35582;BMP180;21687;48.900;9.188;2023-09-19T00:43:33;98086.00;;;16.40
35582;BMP180;21687;48.900;9.188;2023-09-19T00:46:01;98091.00;;;16.50
35582;BMP180;21687;48.900;9.188;2023-09-19T00:48:29;98083.00;;;16.50
35582;BMP180;21687;48.900;9.188;2023-09-19T00:50:57;98096.00;;;16.50
35582;BMP180;21687;48.900;9.188;2023-09-19T00:53:24;98101.00;;;16.60
35582;BMP180;21687;48.900;9.188;2023-09-19T00:55:52;98093.00;;;16.60
35582;BMP180;21687;48.900;9.188;2023-09-19T00:58:19;98092.00;;;16.60
35582;BMP180;21687;48.900;9.188;2023-09-19T01:00:50;98088.00;;;16.70
35582;BMP180;21687;48.900;9.188;2023-09-19T01:03:17;98096.00;;;16.70
35582;BMP180;21687;48.900;9.188;2023-09-19T01:05:44;98090.00;;;16.70
35582;BMP180;21687;48.900;9.188;2023-09-19T01:08:10;98094.00;;;16.80
35582;BMP180;21687;48.900;9.188;2023-09-19T01:10:55;98101.00;;;16.70
35582;BMP180;21687;48.900;9.188;2023-09-19T01:18:52;98101.00;;;16.70
35582;BMP180;21687;48.900;9.188;2023-09-19T01:21:23;98104.00;;;16.80
35582;BMP180;21687;48.900;9.188;2023-09-19T01:29:49;98110.00;;;16.80
35582;BMP180;21687;48.900;9.188;2023-09-19T01:32:20;98106.00;;;16.80
35582;BMP180;21687;48.900;9.188;2023-09-19T01:34:54;98115.00;;;16.80
35582;BMP180;21687;48.900;9.188;2023-09-19T01:37:22;98113.00;;;16.80
35582;BMP180;21687;48.900;9.188;2023-09-19T01:39:57;98114.00;;;16.80
35582;BMP180;21687;48.900;9.188;2023-09-19T01:42:31;98118.00;;;16.80
35582;BMP180;21687;48.900;9.188;2023-09-19T01:45:11;98118.00;;;16.80
35582;BMP180;21687;48.900;9.188;2023-09-19T01:47:50;98113.00;;;16.70
35582;BMP180;21687;48.900;9.188;2023-09-19T01:50:46;98112.00;;;16.60
35582;BMP180;21687;48.900;9.188;2023-09-19T01:53:41;98120.00;;;16.60
35582;BMP180;21687;48.900;9.188;2023-09-19T01:56:16;98137.00;;;16.50
35582;BMP180;21687;48.900;9.188;2023-09-19T01:58:51;98141.00;;;16.40
35582;BMP180;21687;48.900;9.188;2023-09-19T02:01:22;98142.00;;;16.30
35582;BMP180;21687;48.900;9.188;2023-09-19T02:03:50;98136.00;;;16.30
35582;BMP180;21687;48.900;9.188;2023-09-19T02:06:19;98133.00;;;16.30
35582;BMP180;21687;48.900;9.188;2023-09-19T02:08:47;98139.00;;;16.20
35582;BMP180;21687;48.900;9.188;2023-09-19T02:11:14;98144.00;;;16.10
35582;BMP180;21687;48.900;9.188;2023-09-19T02:13:41;98150.00;;;16.10
35582;BMP180;21687;48.900;9.188;2023-09-19T02:16:09;98154.00;;;16.00
35582;BMP180;21687;48.900;9.188;2023-09-19T02:18:36;98149.00;;;15.80
35582;BMP180;21687;48.900;9.188;2023-09-19T02:21:03;98151.00;;;15.80
35582;BMP180;21687;48.900;9.188;2023-09-19T02:23:30;98156.00;;;15.70
35582;BMP180;21687;48.900;9.188;2023-09-19T02:25:59;98149.00;;;15.60
35582;BMP180;21687;48.900;9.188;2023-09-19T02:28:32;98154.00;;;15.60
35582;BMP180;21687;48.900;9.188;2023-09-19T02:30:59;98154.00;;;15.50
35582;BMP180;21687;48.900;9.188;2023-09-19T02:33:25;98152.00;;;15.40
35582;BMP180;21687;48.900;9.188;2023-09-19T02:35:58;98157.00;;;15.40
35582;BMP180;21687;48.900;9.188;2023-09-19T02:38:25;98160.00;;;15.30
35582;BMP180;21687;48.900;9.188;2023-09-19T02:40:52;98161.00;;;15.30
35582;BMP180;21687;48.900;9.188;2023-09-19T02:43:19;98160.00;;;15.30
35582;BMP180;21687;48.900;9.188;2023-09-19T02:45:46;98159.00;;;15.40
35582;BMP180;21687;48.900;9.188;2023-09-19T02:48:13;98172.00;;;15.50
35582;BMP180;21687;48.900;9.188;2023-09-19T02:50:41;98169.00;;;15.50
35582;BMP180;21687;48.900;9.188;2023-09-19T02:53:08;98168.00;;;15.60
35582;BMP180;21687;48.900;9.188;2023-09-19T02:55:37;98172.00;;;15.80
35582;BMP180;21687;48.900;9.188;2023-09-19T02:58:06;98165.00;;;15.90
35582;BMP180;21687;48.900;9.188;2023-09-19T03:00:37;98164.00;;;16.00
35582;BMP180;21687;48.900;9.188;2023-09-19T03:03:04;98183.00;;;16.00
35582;BMP180;21687;48.900;9.188;2023-09-19T03:05:32;98176.00;;;16.10
35582;BMP180;21687;48.900;9.188;2023-09-19T03:07:59;98177.00;;;16.10
35582;BMP180;21687;48.900;9.188;2023-09-19T03:10:28;98183.00;;;16.20
35582;BMP180;21687;48.900;9.188;2023-09-19T03:12:56;98181.00;;;16.20
35582;BMP180;21687;48.900;9.188;2023-09-19T03:15:23;98175.00;;;16.30
35582;BMP180;21687;48.900;9.188;2023-09-19T03:17:50;98183.00;;;16.30
35582;BMP180;21687;48.900;9.188;2023-09-19T03:20:18;98179.00;;;16.30
35582;BMP180;21687;48.900;9.188;2023-09-19T03:22:45;98177.00;;;16.30
35582;BMP180;21687;48.900;9.188;2023-09-19T03:25:13;98183.00;;;16.40
35582;BMP180;21687;48.900;9.188;2023-09-19T03:27:40;98183.00;;;16.40
35582;BMP180;21687;48.900;9.188;2023-09-19T03:30:07;98183.00;;;16.40
35582;BMP180;21687;48.900;9.188;2023-09-19T03:32:48;98178.00;;;16.30
35582;BMP180;21687;48.900;9.188;2023-09-19T03:35:16;98177.00;;;16.30
35582;BMP180;21687;48.900;9.188;2023-09-19T03:37:43;98182.00;;;16.30
35582;BMP180;21687;48.900;9.188;2023-09-19T03:40:13;98185.00;;;16.20
35582;BMP180;21687;48.900;9.188;2023-09-19T03:42:40;98188.00;;;16.10
35582;BMP180;21687;48.900;9.188;2023-09-19T03:45:08;98189.00;;;16.10
35582;BMP180;21687;48.900;9.188;2023-09-19T03:47:38;98200.00;;;16.00
35582;BMP180;21687;48.900;9.188;2023-09-19T03:50:05;98186.00;;;16.00
35582;BMP180;21687;48.900;9.188;2023-09-19T03:52:34;98188.00;;;15.90
35582;BMP180;21687;48.900;9.188;2023-09-19T03:55:01;98191.00;;;15.90
35582;BMP180;21687;48.900;9.188;2023-09-19T03:57:28;98185.00;;;15.90
35582;BMP180;21687;48.900;9.188;2023-09-19T03:59:54;98180.00;;;15.80
35582;BMP180;21687;48.900;9.188;2023-09-19T04:02:22;98186.00;;;15.80
35582;BMP180;21687;48.900;9.188;2023-09-19T04:04:50;98191.00;;;15.80
35582;BMP180;21687;48.900;9.188;2023-09-19T04:07:19;98194.00;;;15.70
35582;BMP180;21687;48.900;9.188;2023-09-19T04:09:48;98187.00;;;15.70
35582;BMP180;21687;48.900;9.188;2023-09-19T04:12:15;98198.00;;;15.70
35582;BMP180;21687;48.900;9.188;2023-09-19T04:14:43;98188.00;;;15.70
35582;BMP180;21687;48.900;9.188;2023-09-19T04:17:09;98200.00;;;15.80
35582;BMP180;21687;48.900;9.188;2023-09-19T04:19:37;98195.00;;;15.80
35582;BMP180;21687;48.900;9.188;2023-09-19T04:22:03;98201.00;;;15.70
35582;BMP180;21687;48.900;9.188;2023-09-19T04:24:30;98203.00;;;15.80
35582;BMP180;21687;48.900;9.188;2023-09-19T04:26:58;98203.00;;;15.80
35582;BMP180;21687;48.900;9.188;2023-09-19T04:29:26;98204.00;;;15.90
35582;BMP180;21687;48.900;9.188;2023-09-19T04:31:55;98213.00;;;15.90
35582;BMP180;21687;48.900;9.188;2023-09-19T04:34:23;98209.00;;;15.80
35582;BMP180;21687;48.900;9.188;2023-09-19T04:36:50;98202.00;;;15.80
35582;BMP180;21687;48.900;9.188;2023-09-19T04:39:16;98219.00;;;15.80
35582;BMP180;21687;48.900;9.188;2023-09-19T04:41:43;98213.00;;;15.80
35582;BMP180;21687;48.900;9.188;2023-09-19T04:44:11;98210.00;;;15.80
35582;BMP180;21687;48.900;9.188;2023-09-19T04:46:38;98222.00;;;15.80
35582;BMP180;21687;48.900;9.188;2023-09-19T04:49:05;98210.00;;;15.90
35582;BMP180;21687;48.900;9.188;2023-09-19T04:51:31;98218.00;;;15.90
35582;BMP180;21687;48.900;9.188;2023-09-19T04:54:01;98231.00;;;16.10
35582;BMP180;21687;48.900;9.188;2023-09-19T04:56:27;98226.00;;;16.00
35582;BMP180;21687;48.900;9.188;2023-09-19T04:58:54;98236.00;;;16.00
35582;BMP180;21687;48.900;9.188;2023-09-19T05:01:21;98238.00;;;15.90
35582;BMP180;21687;48.900;9.188;2023-09-19T05:03:49;98250.00;;;15.90
35582;BMP180;21687;48.900;9.188;2023-09-19T05:06:19;98250.00;;;15.90
35582;BMP180;21687;48.900;9.188;2023-09-19T05:08:49;98249.00;;;15.80
35582;BMP180;21687;48.900;9.188;2023-09-19T05:11:19;98247.00;;;15.80
35582;BMP180;21687;48.900;9.188;2023-09-19T05:13:48;98259.00;;;15.80
35582;BMP180;21687;48.900;9.188;2023-09-19T05:16:16;98241.00;;;15.70
35582;BMP180;21687;48.900;9.188;2023-09-19T05:18:43;98263.00;;;15.70
35582;BMP180;21687;48.900;9.188;2023-09-19T05:21:09;98283.00;;;15.60
35582;BMP180;21687;48.900;9.188;2023-09-19T05:23:35;98274.00;;;15.50
35582;BMP180;21687;48.900;9.188;2023-09-19T05:26:03;98282.00;;;15.50
35582;BMP180;21687;48.900;9.188;2023-09-19T05:28:30;98280.00;;;15.50
35582;BMP180;21687;48.900;9.188;2023-09-19T05:30:56;98270.00;;;15.40
35582;BMP180;21687;48.900;9.188;2023-09-19T05:33:23;98290.00;;;15.30
35582;BMP180;21687;48.900;9.188;2023-09-19T05:35:50;98283.00;;;15.20
35582;BMP180;21687;48.900;9.188;2023-09-19T05:38:16;98286.00;;;15.20
35582;BMP180;21687;48.900;9.188;2023-09-19T05:40:45;98281.00;;;15.20
35582;BMP180;21687;48.900;9.188;2023-09-19T05:43:12;98284.00;;;15.30
35582;BMP180;21687;48.900;9.188;2023-09-19T05:45:40;98290.00;;;15.30
35582;BMP180;21687;48.900;9.188;2023-09-19T05:48:14;98291.00;;;15.30
35582;BMP180;21687;48.900;9.188;2023-09-19T05:50:42;98295.00;;;15.30
35582;BMP180;21687;48.900;9.188;2023-09-19T05:53:09;98301.00;;;15.40
35582;BMP180;21687;48.900;9.188;2023-09-19T05:55:38;98298.00;;;15.40
35582;BMP180;21687;48.900;9.188;2023-09-19T05:58:05;98313.00;;;15.50
35582;BMP180;21687;48.900;9.188;2023-09-19T06:00:31;98319.00;;;15.50
35582;BMP180;21687;48.900;9.188;2023-09-19T06:02:58;98322.00;;;15.50
35582;BMP180;21687;48.900;9.188;2023-09-19T06:05:28;98322.00;;;15.50
35582;BMP180;21687;48.900;9.188;2023-09-19T06:07:56;98328.00;;;15.40
35582;BMP180;21687;48.900;9.188;2023-09-19T06:10:26;98331.00;;;15.30
35582;BMP180;21687;48.900;9.188;2023-09-19T06:12:54;98330.00;;;15.20
35582;BMP180;21687;48.900;9.188;2023-09-19T06:15:21;98335.00;;;15.20
35582;BMP180;21687;48.900;9.188;2023-09-19T06:17:52;98330.00;;;15.20
35582;BMP180;21687;48.900;9.188;2023-09-19T06:20:23;98326.00;;;15.20
35582;BMP180;21687;48.900;9.188;2023-09-19T06:22:51;98332.00;;;15.20
35582;BMP180;21687;48.900;9.188;2023-09-19T06:25:18;98334.00;;;15.20
35582;BMP180;21687;48.900;9.188;2023-09-19T06:27:57;98335.00;;;15.20
35582;BMP180;21687;48.900;9.188;2023-09-19T06:30:24;98330.00;;;15.20
35582;BMP180;21687;48.900;9.188;2023-09-19T06:32:56;98333.00;;;15.20
35582;BMP180;21687;48.900;9.188;2023-09-19T06:35:22;98333.00;;;15.30
35582;BMP180;21687;48.900;9.188;2023-09-19T06:37:49;98337.00;;;15.30
35582;BMP180;21687;48.900;9.188;2023-09-19T06:40:17;98341.00;;;15.30
35582;BMP180;21687;48.900;9.188;2023-09-19T06:42:49;98339.00;;;15.40
35582;BMP180;21687;48.900;9.188;2023-09-19T06:45:16;98340.00;;;15.50
35582;BMP180;21687;48.900;9.188;2023-09-19T06:47:51;98335.00;;;15.60
35582;BMP180;21687;48.900;9.188;2023-09-19T06:50:18;98345.00;;;15.60
35582;BMP180;21687;48.900;9.188;2023-09-19T06:52:46;98343.00;;;15.80
35582;BMP180;21687;48.900;9.188;2023-09-19T06:55:20;98337.00;;;15.90
35582;BMP180;21687;48.900;9.188;2023-09-19T06:57:49;98345.00;;;15.90
35582;BMP180;21687;48.900;9.188;2023-09-19T07:00:16;98346.00;;;16.00
35582;BMP180;21687;48.900;9.188;2023-09-19T07:02:58;98347.00;;;16.10
35582;BMP180;21687;48.900;9.188;2023-09-19T07:05:27;98355.00;;;16.10
35582;BMP180;21687;48.900;9.188;2023-09-19T07:07:54;98357.00;;;16.20
35582;BMP180;21687;48.900;9.188;2023-09-19T07:10:25;98364.00;;;16.30
35582;BMP180;21687;48.900;9.188;2023-09-19T07:13:05;98376.00;;;16.30
35582;BMP180;21687;48.900;9.188;2023-09-19T07:15:37;98381.00;;;16.30
35582;BMP180;21687;48.900;9.188;2023-09-19T07:18:16;98378.00;;;16.30
35582;BMP180;21687;48.900;9.188;2023-09-19T07:20:44;98375.00;;;16.30
35582;BMP180;21687;48.900;9.188;2023-09-19T07:23:21;98382.00;;;16.30
35582;BMP180;21687;48.900;9.188;2023-09-19T07:25:56;98380.00;;;16.30
35582;BMP180;21687;48.900;9.188;2023-09-19T07:28:23;98387.00;;;16.40
35582;BMP180;21687;48.900;9.188;2023-09-19T07:30:49;98387.00;;;16.40
35582;BMP180;21687;48.900;9.188;2023-09-19T07:33:16;98390.00;;;16.40
35582;BMP180;21687;48.900;9.188;2023-09-19T07:35:48;98396.00;;;16.40
35582;BMP180;21687;48.900;9.188;2023-09-19T07:38:15;98398.00;;;16.50
35582;BMP180;21687;48.900;9.188;2023-09-19T07:40:41;98404.00;;;16.60
35582;BMP180;21687;48.900;9.188;2023-09-19T07:43:08;98400.00;;;16.60
35582;BMP180;21687;48.900;9.188;2023-09-19T07:45:34;98405.00;;;16.60
35582;BMP180;21687;48.900;9.188;2023-09-19T07:48:02;98403.00;;;16.70
35582;BMP180;21687;48.900;9.188;2023-09-19T07:50:34;98404.00;;;16.80
35582;BMP180;21687;48.900;9.188;2023-09-19T07:53:03;98414.00;;;16.70
35582;BMP180;21687;48.900;9.188;2023-09-19T07:55:31;98407.00;;;16.70
35582;BMP180;21687;48.900;9.188;2023-09-19T07:57:59;98412.00;;;16.70
35582;BMP180;21687;48.900;9.188;2023-09-19T08:00:26;98418.00;;;16.70
35582;BMP180;21687;48.900;9.188;2023-09-19T08:02:52;98415.00;;;16.70
35582;BMP180;21687;48.900;9.188;2023-09-19T08:05:19;98420.00;;;16.70
35582;BMP180;21687;48.900;9.188;2023-09-19T08:07:46;98426.00;;;16.70
35582;BMP180;21687;48.900;9.188;2023-09-19T08:10:16;98422.00;;;16.80
35582;BMP180;21687;48.900;9.188;2023-09-19T08:12:47;98426.00;;;16.90
35582;BMP180;21687;48.900;9.188;2023-09-19T08:15:19;98427.00;;;16.90
35582;BMP180;21687;48.900;9.188;2023-09-19T08:17:48;98421.00;;;17.00
35582;BMP180;21687;48.900;9.188;2023-09-19T08:20:15;98426.00;;;17.20
35582;BMP180;21687;48.900;9.188;2023-09-19T08:22:51;98427.00;;;17.30
35582;BMP180;21687;48.900;9.188;2023-09-19T08:25:21;98421.00;;;17.40
35582;BMP180;21687;48.900;9.188;2023-09-19T08:27:51;98423.00;;;17.50
35582;BMP180;21687;48.900;9.188;2023-09-19T08:30:19;98426.00;;;17.70
35582;BMP180;21687;48.900;9.188;2023-09-19T08:32:50;98416.00;;;17.80
35582;BMP180;21687;48.900;9.188;2023-09-19T08:35:16;98412.00;;;17.90
35582;BMP180;21687;48.900;9.188;2023-09-19T08:37:43;98425.00;;;18.10
35582;BMP180;21687;48.900;9.188;2023-09-19T08:40:12;98429.00;;;18.20
35582;BMP180;21687;48.900;9.188;2023-09-19T08:45:20;98430.00;;;18.20
35582;BMP180;21687;48.900;9.188;2023-09-19T08:47:56;98435.00;;;18.50
35582;BMP180;21687;48.900;9.188;2023-09-19T08:50:30;98449.00;;;18.60
35582;BMP180;21687;48.900;9.188;2023-09-19T08:53:01;98446.00;;;18.80
35582;BMP180;21687;48.900;9.188;2023-09-19T08:55:28;98458.00;;;18.80
35582;BMP180;21687;48.900;9.188;2023-09-19T08:58:05;98456.00;;;18.80
35582;BMP180;21687;48.900;9.188;2023-09-19T09:00:33;98454.00;;;19.00
35582;BMP180;21687;48.900;9.188;2023-09-19T09:03:02;98457.00;;;18.90
35582;BMP180;21687;48.900;9.188;2023-09-19T09:05:29;98452.00;;;19.00
35582;BMP180;21687;48.900;9.188;2023-09-19T09:07:59;98455.00;;;19.00
35582;BMP180;21687;48.900;9.188;2023-09-19T09:10:26;98456.00;;;19.00
35582;BMP180;21687;48.900;9.188;2023-09-19T09:12:53;98454.00;;;19.20
35582;BMP180;21687;48.900;9.188;2023-09-19T09:15:24;98452.00;;;19.30
35582;BMP180;21687;48.900;9.188;2023-09-19T09:17:51;98453.00;;;19.50
35582;BMP180;21687;48.900;9.188;2023-09-19T09:20:21;98458.00;;;19.90
35582;BMP180;21687;48.900;9.188;2023-09-19T09:22:54;98442.00;;;20.00
35582;BMP180;21687;48.900;9.188;2023-09-19T09:25:21;98454.00;;;20.10
35582;BMP180;21687;48.900;9.188;2023-09-19T09:28:03;98449.00;;;20.10
35582;BMP180;21687;48.900;9.188;2023-09-19T09:30:37;98452.00;;;20.40
35582;BMP180;21687;48.900;9.188;2023-09-19T09:33:14;98452.00;;;20.40
35582;BMP180;21687;48.900;9.188;2023-09-19T09:38:25;98455.00;;;20.80
35582;BMP180;21687;48.900;9.188;2023-09-19T09:40:57;98452.00;;;21.00
35582;BMP180;21687;48.900;9.188;2023-09-19T09:43:40;98447.00;;;21.20
35582;BMP180;21687;48.900;9.188;2023-09-19T09:46:11;98458.00;;;21.30
35582;BMP180;21687;48.900;9.188;2023-09-19T09:48:47;98449.00;;;21.30
35582;BMP180;21687;48.900;9.188;2023-09-19T09:51:33;98457.00;;;21.00
35582;BMP180;21687;48.900;9.188;2023-09-19T09:54:16;98461.00;;;20.70
35582;BMP180;21687;48.900;9.188;2023-09-19T09:56:57;98451.00;;;20.60
35582;BMP180;21687;48.900;9.188;2023-09-19T10:02:35;98457.00;;;20.70
35582;BMP180;21687;48.900;9.188;2023-09-19T10:05:16;98450.00;;;20.70
35582;BMP180;21687;48.900;9.188;2023-09-19T10:07:46;98448.00;;;20.80
35582;BMP180;21687;48.900;9.188;2023-09-19T10:10:34;98443.00;;;20.70
35582;BMP180;21687;48.900;9.188;2023-09-19T10:13:08;98448.00;;;20.70
35582;BMP180;21687;48.900;9.188;2023-09-19T10:15:39;98456.00;;;20.80
35582;BMP180;21687;48.900;9.188;2023-09-19T10:18:11;98450.00;;;21.00
35582;BMP180;21687;48.900;9.188;2023-09-19T10:20:47;98450.00;;;20.90
35582;BMP180;21687;48.900;9.188;2023-09-19T10:23:16;98448.00;;;21.00
35582;BMP180;21687;48.900;9.188;2023-09-19T10:25:49;98446.00;;;21.20
35582;BMP180;21687;48.900;9.188;2023-09-19T10:28:17;98445.00;;;21.20
35582;BMP180;21687;48.900;9.188;2023-09-19T10:30:54;98443.00;;;21.10
35582;BMP180;21687;48.900;9.188;2023-09-19T10:33:23;98441.00;;;21.00
35582;BMP180;21687;48.900;9.188;2023-09-19T10:35:53;98440.00;;;20.90
35582;BMP180;21687;48.900;9.188;2023-09-19T10:38:26;98448.00;;;21.10
35582;BMP180;21687;48.900;9.188;2023-09-19T10:40:56;98448.00;;;21.20
35582;BMP180;21687;48.900;9.188;2023-09-19T10:43:33;98446.00;;;21.40
35582;BMP180;21687;48.900;9.188;2023-09-19T10:46:06;98451.00;;;21.80
35582;BMP180;21687;48.900;9.188;2023-09-19T10:48:33;98450.00;;;21.70
35582;BMP180;21687;48.900;9.188;2023-09-19T10:53:48;98454.00;;;21.50
35582;BMP180;21687;48.900;9.188;2023-09-19T10:56:21;98460.00;;;21.30
35582;BMP180;21687;48.900;9.188;2023-09-19T10:58:47;98460.00;;;21.00
35582;BMP180;21687;48.900;9.188;2023-09-19T11:01:15;98456.00;;;21.00
35582;BMP180;21687;48.900;9.188;2023-09-19T11:03:42;98463.00;;;20.70
35582;BMP180;21687;48.900;9.188;2023-09-19T11:06:18;98465.00;;;20.60
35582;BMP180;21687;48.900;9.188;2023-09-19T11:09:05;98456.00;;;20.70
35582;BMP180;21687;48.900;9.188;2023-09-19T11:30:45;98451.00;;;20.80
35582;BMP180;21687;48.900;9.188;2023-09-19T11:33:31;98443.00;;;20.80
35582;BMP180;21687;48.900;9.188;2023-09-19T11:36:08;98432.00;;;20.80
35582;BMP180;21687;48.900;9.188;2023-09-19T11:49:29;98431.00;;;20.90
35582;BMP180;21687;48.900;9.188;2023-09-19T11:51:57;98429.00;;;21.10
35582;BMP180;21687;48.900;9.188;2023-09-19T11:54:23;98433.00;;;21.20
35582;BMP180;21687;48.900;9.188;2023-09-19T11:56:54;98422.00;;;21.20
35582;BMP180;21687;48.900;9.188;2023-09-19T11:59:24;98431.00;;;21.50
35582;BMP180;21687;48.900;9.188;2023-09-19T12:02:05;98426.00;;;21.50
35582;BMP180;21687;48.900;9.188;2023-09-19T12:04:40;98436.00;;;21.30
35582;BMP180;21687;48.900;9.188;2023-09-19T12:07:12;98434.00;;;21.10
35582;BMP180;21687;48.900;9.188;2023-09-19T12:09:43;98418.00;;;21.00
35582;BMP180;21687;48.900;9.188;2023-09-19T12:12:11;98410.00;;;20.90
35582;BMP180;21687;48.900;9.188;2023-09-19T12:14:50;98416.00;;;20.90
35582;BMP180;21687;48.900;9.188;2023-09-19T12:17:20;98408.00;;;21.10
35582;BMP180;21687;48.900;9.188;2023-09-19T12:19:51;98412.00;;;21.10
35582;BMP180;21687;48.900;9.188;2023-09-19T12:22:17;98408.00;;;21.20
35582;BMP180;21687;48.900;9.188;2023-09-19T12:24:46;98402.00;;;21.30
35582;BMP180;21687;48.900;9.188;2023-09-19T12:27:13;98396.00;;;21.40
35582;BMP180;21687;48.900;9.188;2023-09-19T12:29:47;98395.00;;;21.50
35582;BMP180;21687;48.900;9.188;2023-09-19T12:32:17;98391.00;;;21.60
35582;BMP180;21687;48.900;9.188;2023-09-19T12:34:51;98381.00;;;21.70
35582;BMP180;21687;48.900;9.188;2023-09-19T12:37:18;98389.00;;;21.90
35582;BMP180;21687;48.900;9.188;2023-09-19T12:39:51;98387.00;;;22.00
35582;BMP180;21687;48.900;9.188;2023-09-19T12:42:22;98380.00;;;22.10
35582;BMP180;21687;48.900;9.188;2023-09-19T12:44:51;98389.00;;;22.10
35582;BMP180;21687;48.900;9.188;2023-09-19T12:47:23;98381.00;;;22.10
35582;BMP180;21687;48.900;9.188;2023-09-19T12:50:12;98378.00;;;21.80
35582;BMP180;21687;48.900;9.188;2023-09-19T12:52:44;98376.00;;;21.80
35582;BMP180;21687;48.900;9.188;2023-09-19T12:55:24;98371.00;;;21.70
35582;BMP180;21687;48.900;9.188;2023-09-19T13:11:11;98365.00;;;22.10
35582;BMP180;21687;48.900;9.188;2023-09-19T13:22:44;98366.00;;;22.30
35582;BMP180;21687;48.900;9.188;2023-09-19T13:25:24;98369.00;;;22.30
35582;BMP180;21687;48.900;9.188;2023-09-19T13:28:01;98368.00;;;22.40
35582;BMP180;21687;48.900;9.188;2023-09-19T13:30:37;98362.00;;;22.20
35582;BMP180;21687;48.900;9.188;2023-09-19T13:33:11;98368.00;;;22.30
35582;BMP180;21687;48.900;9.188;2023-09-19T13:35:39;98356.00;;;22.30
35582;BMP180;21687;48.900;9.188;2023-09-19T13:38:08;98363.00;;;22.10
35582;BMP180;21687;48.900;9.188;2023-09-19T13:40:38;98355.00;;;22.30
35582;BMP180;21687;48.900;9.188;2023-09-19T13:43:09;98355.00;;;22.20
35582;BMP180;21687;48.900;9.188;2023-09-19T13:45:37;98358.00;;;21.90
35582;BMP180;21687;48.900;9.188;2023-09-19T13:48:03;98360.00;;;21.90
35582;BMP180;21687;48.900;9.188;2023-09-19T13:50:30;98357.00;;;22.00
35582;BMP180;21687;48.900;9.188;2023-09-19T13:52:57;98357.00;;;21.90
35582;BMP180;21687;48.900;9.188;2023-09-19T13:55:26;98350.00;;;21.90
35582;BMP180;21687;48.900;9.188;2023-09-19T13:57:53;98337.00;;;22.00
35582;BMP180;21687;48.900;9.188;2023-09-19T14:00:22;98344.00;;;21.90
35582;BMP180;21687;48.900;9.188;2023-09-19T14:02:49;98335.00;;;21.80
35582;BMP180;21687;48.900;9.188;2023-09-19T14:05:18;98339.00;;;21.80
35582;BMP180;21687;48.900;9.188;2023-09-19T14:07:45;98336.00;;;21.80
35582;BMP180;21687;48.900;9.188;2023-09-19T14:10:12;98335.00;;;21.70
35582;BMP180;21687;48.900;9.188;2023-09-19T14:12:39;98335.00;;;21.70
35582;BMP180;21687;48.900;9.188;2023-09-19T14:15:08;98335.00;;;21.70
35582;BMP180;21687;48.900;9.188;2023-09-19T14:17:35;98339.00;;;21.70
35582;BMP180;21687;48.900;9.188;2023-09-19T14:20:03;98332.00;;;21.60
35582;BMP180;21687;48.900;9.188;2023-09-19T14:22:31;98339.00;;;21.60
35582;BMP180;21687;48.900;9.188;2023-09-19T14:24:57;98332.00;;;21.70
35582;BMP180;21687;48.900;9.188;2023-09-19T14:27:29;98334.00;;;21.70
35582;BMP180;21687;48.900;9.188;2023-09-19T14:30:05;98330.00;;;21.70
35582;BMP180;21687;48.900;9.188;2023-09-19T14:32:41;98323.00;;;21.60
35582;BMP180;21687;48.900;9.188;2023-09-19T14:35:08;98331.00;;;21.70
35582;BMP180;21687;48.900;9.188;2023-09-19T14:37:36;98328.00;;;21.70
35582;BMP180;21687;48.900;9.188;2023-09-19T14:40:05;98320.00;;;21.80
35582;BMP180;21687;48.900;9.188;2023-09-19T14:42:39;98314.00;;;21.90
35582;BMP180;21687;48.900;9.188;2023-09-19T14:45:06;98316.00;;;21.80
35582;BMP180;21687;48.900;9.188;2023-09-19T14:47:33;98321.00;;;21.90
35582;BMP180;21687;48.900;9.188;2023-09-19T14:50:03;98320.00;;;21.90
35582;BMP180;21687;48.900;9.188;2023-09-19T14:52:35;98319.00;;;22.00
35582;BMP180;21687;48.900;9.188;2023-09-19T14:55:02;98316.00;;;22.10
35582;BMP180;21687;48.900;9.188;2023-09-19T14:57:31;98315.00;;;22.10
35582;BMP180;21687;48.900;9.188;2023-09-19T14:59:57;98303.00;;;22.30
35582;BMP180;21687;48.900;9.188;2023-09-19T15:02:25;98314.00;;;22.40
35582;BMP180;21687;48.900;9.188;2023-09-19T15:04:52;98315.00;;;22.40
35582;BMP180;21687;48.900;9.188;2023-09-19T15:07:18;98327.00;;;22.40
35582;BMP180;21687;48.900;9.188;2023-09-19T15:09:46;98323.00;;;22.30
35582;BMP180;21687;48.900;9.188;2023-09-19T15:12:16;98313.00;;;22.20
35582;BMP180;21687;48.900;9.188;2023-09-19T15:14:47;98313.00;;;22.20
35582;BMP180;21687;48.900;9.188;2023-09-19T15:17:13;98313.00;;;22.20
35582;BMP180;21687;48.900;9.188;2023-09-19T15:19:41;98311.00;;;22.30
35582;BMP180;21687;48.900;9.188;2023-09-19T15:22:08;98309.00;;;22.30
35582;BMP180;21687;48.900;9.188;2023-09-19T15:24:34;98307.00;;;22.30
35582;BMP180;21687;48.900;9.188;2023-09-19T15:27:00;98309.00;;;22.30
35582;BMP180;21687;48.900;9.188;2023-09-19T15:29:27;98309.00;;;22.20
35582;BMP180;21687;48.900;9.188;2023-09-19T15:31:55;98303.00;;;22.20
35582;BMP180;21687;48.900;9.188;2023-09-19T15:34:24;98306.00;;;22.30
35582;BMP180;21687;48.900;9.188;2023-09-19T15:36:51;98297.00;;;22.20
35582;BMP180;21687;48.900;9.188;2023-09-19T15:39:21;98297.00;;;22.20